sensor_id;sensor_type;location;lat;lon;timestamp;P1;durP1;ratioP1;P2;durP2;ratioP2
73951;SDS011;62304;47.662;18.324;2023-04-25T00:01:24;6.05;;;2.67;;
73951;SDS011;62304;47.662;18.324;2023-04-25T00:04:27;5.68;;;2.42;;
73951;SDS011;62304;47.662;18.324;2023-04-25T00:07:30;5.53;;;3.30;;
73951;SDS011;62304;47.662;18.324;2023-04-25T00:10:34;5.20;;;2.50;;
73951;SDS011;62304;47.662;18.324;2023-04-25T00:13:37;5.57;;;2.70;;
73951;SDS011;62304;47.662;18.324;2023-04-25T00:16:44;4.78;;;2.17;;
73951;SDS011;62304;47.662;18.324;2023-04-25T00:19:46;5.43;;;2.42;;
73951;SDS011;62304;47.662;18.324;2023-04-25T00:22:49;4.90;;;2.30;;
73951;SDS011;62304;47.662;18.324;2023-04-25T00:25:53;5.73;;;2.13;;
73951;SDS011;62304;47.662;18.324;2023-04-25T00:28:55;4.60;;;2.00;;
73951;SDS011;62304;47.662;18.324;2023-04-25T00:31:58;3.90;;;1.67;;
73951;SDS011;62304;47.662;18.324;2023-04-25T00:35:01;6.62;;;2.17;;
73951;SDS011;62304;47.662;18.324;2023-04-25T00:38:04;4.80;;;1.55;;
73951;SDS011;62304;47.662;18.324;2023-04-25T00:41:07;3.33;;;1.27;;
73951;SDS011;62304;47.662;18.324;2023-04-25T00:44:10;3.77;;;1.47;;
73951;SDS011;62304;47.662;18.324;2023-04-25T00:47:14;4.93;;;1.90;;
73951;SDS011;62304;47.662;18.324;2023-04-25T00:50:18;5.37;;;2.03;;
73951;SDS011;62304;47.662;18.324;2023-04-25T00:53:21;3.42;;;1.42;;
73951;SDS011;62304;47.662;18.324;2023-04-25T00:56:24;3.90;;;1.60;;
73951;SDS011;62304;47.662;18.324;2023-04-25T00:59:28;4.03;;;1.77;;
73951;SDS011;62304;47.662;18.324;2023-04-25T01:06:23;3.50;;;1.20;;
73951;SDS011;62304;47.662;18.324;2023-04-25T01:09:26;3.78;;;1.62;;
73951;SDS011;62304;47.662;18.324;2023-04-25T01:12:30;3.83;;;1.37;;
73951;SDS011;62304;47.662;18.324;2023-04-25T01:15:33;3.83;;;1.80;;
73951;SDS011;62304;47.662;18.324;2023-04-25T01:18:40;3.75;;;1.50;;
73951;SDS011;62304;47.662;18.324;2023-04-25T01:21:44;3.37;;;1.20;;
73951;SDS011;62304;47.662;18.324;2023-04-25T01:24:48;4.30;;;1.67;;
73951;SDS011;62304;47.662;18.324;2023-04-25T01:27:51;4.83;;;1.80;;
73951;SDS011;62304;47.662;18.324;2023-04-25T01:30:54;4.13;;;1.53;;
73951;SDS011;62304;47.662;18.324;2023-04-25T01:33:58;3.75;;;1.40;;
73951;SDS011;62304;47.662;18.324;2023-04-25T01:37:03;3.90;;;1.58;;
73951;SDS011;62304;47.662;18.324;2023-04-25T01:40:06;3.47;;;1.50;;
73951;SDS011;62304;47.662;18.324;2023-04-25T01:43:10;4.27;;;1.67;;
73951;SDS011;62304;47.662;18.324;2023-04-25T01:46:14;3.80;;;1.47;;
73951;SDS011;62304;47.662;18.324;2023-04-25T01:49:18;3.17;;;1.27;;
73951;SDS011;62304;47.662;18.324;2023-04-25T01:52:20;3.65;;;1.50;;
73951;SDS011;62304;47.662;18.324;2023-04-25T01:55:26;3.22;;;1.17;;
73951;SDS011;62304;47.662;18.324;2023-04-25T01:58:30;4.83;;;1.63;;
73951;SDS011;62304;47.662;18.324;2023-04-25T02:01:35;4.20;;;1.70;;
73951;SDS011;62304;47.662;18.324;2023-04-25T02:04:38;4.12;;;1.60;;
73951;SDS011;62304;47.662;18.324;2023-04-25T02:07:42;4.18;;;1.10;;
73951;SDS011;62304;47.662;18.324;2023-04-25T02:10:45;4.12;;;1.62;;
73951;SDS011;62304;47.662;18.324;2023-04-25T02:13:48;3.60;;;1.80;;
73951;SDS011;62304;47.662;18.324;2023-04-25T02:16:51;8.23;;;1.83;;
73951;SDS011;62304;47.662;18.324;2023-04-25T02:19:54;4.60;;;1.58;;
73951;SDS011;62304;47.662;18.324;2023-04-25T02:22:58;5.03;;;2.15;;
73951;SDS011;62304;47.662;18.324;2023-04-25T02:26:02;4.22;;;1.17;;
73951;SDS011;62304;47.662;18.324;2023-04-25T02:29:05;4.63;;;1.47;;
73951;SDS011;62304;47.662;18.324;2023-04-25T02:32:08;4.87;;;1.70;;
73951;SDS011;62304;47.662;18.324;2023-04-25T02:35:10;4.75;;;1.85;;
73951;SDS011;62304;47.662;18.324;2023-04-25T02:38:13;5.10;;;2.00;;
73951;SDS011;62304;47.662;18.324;2023-04-25T02:41:16;4.40;;;1.80;;
73951;SDS011;62304;47.662;18.324;2023-04-25T02:44:19;4.27;;;1.80;;
73951;SDS011;62304;47.662;18.324;2023-04-25T02:47:22;4.90;;;2.00;;
73951;SDS011;62304;47.662;18.324;2023-04-25T02:50:26;4.60;;;1.83;;
73951;SDS011;62304;47.662;18.324;2023-04-25T02:53:28;4.40;;;1.80;;
73951;SDS011;62304;47.662;18.324;2023-04-25T02:56:31;4.30;;;1.80;;
73951;SDS011;62304;47.662;18.324;2023-04-25T02:59:34;4.67;;;1.40;;
73951;SDS011;62304;47.662;18.324;2023-04-25T03:02:37;4.40;;;1.77;;
73951;SDS011;62304;47.662;18.324;2023-04-25T03:05:40;4.20;;;1.70;;
73951;SDS011;62304;47.662;18.324;2023-04-25T03:08:43;4.40;;;1.83;;
73951;SDS011;62304;47.662;18.324;2023-04-25T03:11:46;5.12;;;1.90;;
73951;SDS011;62304;47.662;18.324;2023-04-25T03:14:49;4.00;;;1.50;;
73951;SDS011;62304;47.662;18.324;2023-04-25T03:17:52;4.83;;;1.90;;
73951;SDS011;62304;47.662;18.324;2023-04-25T03:20:55;3.10;;;0.98;;
73951;SDS011;62304;47.662;18.324;2023-04-25T03:23:58;3.72;;;1.90;;
73951;SDS011;62304;47.662;18.324;2023-04-25T03:27:03;4.20;;;1.80;;
73951;SDS011;62304;47.662;18.324;2023-04-25T03:30:06;4.10;;;1.30;;
73951;SDS011;62304;47.662;18.324;2023-04-25T03:33:10;5.57;;;1.80;;
73951;SDS011;62304;47.662;18.324;2023-04-25T03:36:13;5.18;;;1.50;;
73951;SDS011;62304;47.662;18.324;2023-04-25T03:39:16;3.55;;;1.65;;
73951;SDS011;62304;47.662;18.324;2023-04-25T03:42:20;4.85;;;1.87;;
73951;SDS011;62304;47.662;18.324;2023-04-25T03:45:25;3.83;;;1.53;;
73951;SDS011;62304;47.662;18.324;2023-04-25T03:48:28;6.00;;;1.70;;
73951;SDS011;62304;47.662;18.324;2023-04-25T03:51:31;4.20;;;1.85;;
73951;SDS011;62304;47.662;18.324;2023-04-25T03:54:34;4.12;;;1.40;;
73951;SDS011;62304;47.662;18.324;2023-04-25T03:57:37;5.55;;;2.10;;
73951;SDS011;62304;47.662;18.324;2023-04-25T04:00:40;4.60;;;1.83;;
73951;SDS011;62304;47.662;18.324;2023-04-25T04:03:43;3.40;;;1.30;;
73951;SDS011;62304;47.662;18.324;2023-04-25T04:06:46;5.00;;;2.20;;
73951;SDS011;62304;47.662;18.324;2023-04-25T04:09:49;4.72;;;1.95;;
73951;SDS011;62304;47.662;18.324;2023-04-25T04:12:52;3.92;;;1.77;;
73951;SDS011;62304;47.662;18.324;2023-04-25T04:15:55;4.43;;;1.83;;
73951;SDS011;62304;47.662;18.324;2023-04-25T04:18:58;6.27;;;2.27;;
73951;SDS011;62304;47.662;18.324;2023-04-25T04:22:02;5.65;;;1.70;;
73951;SDS011;62304;47.662;18.324;2023-04-25T04:25:04;6.82;;;2.40;;
73951;SDS011;62304;47.662;18.324;2023-04-25T04:28:09;3.90;;;1.87;;
73951;SDS011;62304;47.662;18.324;2023-04-25T04:31:13;6.60;;;1.97;;
73951;SDS011;62304;47.662;18.324;2023-04-25T04:34:19;5.80;;;1.90;;
73951;SDS011;62304;47.662;18.324;2023-04-25T04:37:22;6.47;;;2.50;;
73951;SDS011;62304;47.662;18.324;2023-04-25T04:40:25;5.07;;;2.37;;
73951;SDS011;62304;47.662;18.324;2023-04-25T04:43:28;5.07;;;2.10;;
73951;SDS011;62304;47.662;18.324;2023-04-25T04:46:32;4.20;;;2.00;;
73951;SDS011;62304;47.662;18.324;2023-04-25T04:49:42;4.67;;;2.30;;
73951;SDS011;62304;47.662;18.324;2023-04-25T04:52:46;4.62;;;2.05;;
73951;SDS011;62304;47.662;18.324;2023-04-25T04:55:49;5.20;;;2.40;;
73951;SDS011;62304;47.662;18.324;2023-04-25T04:58:54;4.50;;;2.00;;
73951;SDS011;62304;47.662;18.324;2023-04-25T05:01:57;5.80;;;2.77;;
73951;SDS011;62304;47.662;18.324;2023-04-25T05:05:00;4.67;;;2.30;;
73951;SDS011;62304;47.662;18.324;2023-04-25T05:08:03;3.30;;;1.35;;
73951;SDS011;62304;47.662;18.324;2023-04-25T05:11:07;5.70;;;2.40;;
73951;SDS011;62304;47.662;18.324;2023-04-25T05:14:10;5.00;;;2.30;;
73951;SDS011;62304;47.662;18.324;2023-04-25T05:17:31;4.90;;;1.90;;
73951;SDS011;62304;47.662;18.324;2023-04-25T05:20:35;4.80;;;2.40;;
73951;SDS011;62304;47.662;18.324;2023-04-25T05:23:38;4.40;;;1.83;;
73951;SDS011;62304;47.662;18.324;2023-04-25T05:26:42;4.12;;;1.70;;
73951;SDS011;62304;47.662;18.324;2023-04-25T05:29:45;4.93;;;2.40;;
73951;SDS011;62304;47.662;18.324;2023-04-25T05:32:48;4.40;;;1.93;;
73951;SDS011;62304;47.662;18.324;2023-04-25T05:35:51;4.67;;;1.83;;
73951;SDS011;62304;47.662;18.324;2023-04-25T05:38:54;5.47;;;2.65;;
73951;SDS011;62304;47.662;18.324;2023-04-25T05:41:58;5.18;;;2.03;;
73951;SDS011;62304;47.662;18.324;2023-04-25T05:45:01;5.97;;;2.30;;
73951;SDS011;62304;47.662;18.324;2023-04-25T05:48:04;5.10;;;2.73;;
73951;SDS011;62304;47.662;18.324;2023-04-25T05:51:08;7.33;;;2.93;;
73951;SDS011;62304;47.662;18.324;2023-04-25T05:54:11;6.47;;;3.47;;
73951;SDS011;62304;47.662;18.324;2023-04-25T05:57:23;5.37;;;1.83;;
73951;SDS011;62304;47.662;18.324;2023-04-25T06:00:27;7.35;;;3.00;;
73951;SDS011;62304;47.662;18.324;2023-04-25T06:03:30;6.40;;;2.97;;
73951;SDS011;62304;47.662;18.324;2023-04-25T06:06:33;4.73;;;2.17;;
73951;SDS011;62304;47.662;18.324;2023-04-25T06:09:36;6.57;;;3.10;;
73951;SDS011;62304;47.662;18.324;2023-04-25T06:12:41;6.72;;;3.00;;
73951;SDS011;62304;47.662;18.324;2023-04-25T06:15:44;5.68;;;2.58;;
73951;SDS011;62304;47.662;18.324;2023-04-25T06:18:46;6.70;;;2.07;;
73951;SDS011;62304;47.662;18.324;2023-04-25T06:21:50;6.80;;;2.77;;
73951;SDS011;62304;47.662;18.324;2023-04-25T06:24:53;7.53;;;2.90;;
73951;SDS011;62304;47.662;18.324;2023-04-25T06:27:59;5.70;;;2.60;;
73951;SDS011;62304;47.662;18.324;2023-04-25T06:31:02;5.43;;;2.67;;
73951;SDS011;62304;47.662;18.324;2023-04-25T06:34:05;6.17;;;3.30;;
73951;SDS011;62304;47.662;18.324;2023-04-25T06:37:09;7.67;;;3.57;;
73951;SDS011;62304;47.662;18.324;2023-04-25T06:40:12;5.45;;;2.75;;
73951;SDS011;62304;47.662;18.324;2023-04-25T06:43:15;5.68;;;1.98;;
73951;SDS011;62304;47.662;18.324;2023-04-25T06:46:18;5.03;;;2.30;;
73951;SDS011;62304;47.662;18.324;2023-04-25T06:49:21;6.27;;;2.10;;
73951;SDS011;62304;47.662;18.324;2023-04-25T06:52:25;8.33;;;2.83;;
73951;SDS011;62304;47.662;18.324;2023-04-25T06:55:28;7.45;;;3.05;;
73951;SDS011;62304;47.662;18.324;2023-04-25T06:58:31;5.87;;;2.47;;
73951;SDS011;62304;47.662;18.324;2023-04-25T07:01:34;5.57;;;2.60;;
73951;SDS011;62304;47.662;18.324;2023-04-25T07:04:38;6.27;;;2.60;;
73951;SDS011;62304;47.662;18.324;2023-04-25T07:07:41;4.70;;;1.87;;
73951;SDS011;62304;47.662;18.324;2023-04-25T07:10:44;4.40;;;1.87;;
73951;SDS011;62304;47.662;18.324;2023-04-25T07:13:50;4.95;;;2.25;;
73951;SDS011;62304;47.662;18.324;2023-04-25T07:16:53;5.82;;;3.00;;
73951;SDS011;62304;47.662;18.324;2023-04-25T07:19:58;5.53;;;2.30;;
73951;SDS011;62304;47.662;18.324;2023-04-25T07:23:02;5.33;;;2.20;;
73951;SDS011;62304;47.662;18.324;2023-04-25T07:26:05;5.82;;;2.17;;
73951;SDS011;62304;47.662;18.324;2023-04-25T07:29:09;5.22;;;2.08;;
73951;SDS011;62304;47.662;18.324;2023-04-25T07:32:11;4.80;;;2.33;;
73951;SDS011;62304;47.662;18.324;2023-04-25T07:35:17;7.93;;;3.37;;
73951;SDS011;62304;47.662;18.324;2023-04-25T07:38:19;5.07;;;2.60;;
73951;SDS011;62304;47.662;18.324;2023-04-25T07:41:22;5.25;;;2.67;;
73951;SDS011;62304;47.662;18.324;2023-04-25T07:44:26;5.43;;;2.00;;
73951;SDS011;62304;47.662;18.324;2023-04-25T07:47:29;6.47;;;2.72;;
73951;SDS011;62304;47.662;18.324;2023-04-25T07:50:32;6.00;;;3.17;;
73951;SDS011;62304;47.662;18.324;2023-04-25T07:53:35;8.13;;;3.03;;
73951;SDS011;62304;47.662;18.324;2023-04-25T07:56:40;6.70;;;2.78;;
73951;SDS011;62304;47.662;18.324;2023-04-25T07:59:54;5.90;;;2.12;;
73951;SDS011;62304;47.662;18.324;2023-04-25T08:02:57;5.10;;;2.37;;
73951;SDS011;62304;47.662;18.324;2023-04-25T08:06:00;4.73;;;2.27;;
73951;SDS011;62304;47.662;18.324;2023-04-25T08:09:10;7.67;;;2.87;;
73951;SDS011;62304;47.662;18.324;2023-04-25T08:12:14;5.30;;;2.75;;
73951;SDS011;62304;47.662;18.324;2023-04-25T08:15:19;6.32;;;2.97;;
73951;SDS011;62304;47.662;18.324;2023-04-25T08:18:22;10.57;;;3.65;;
73951;SDS011;62304;47.662;18.324;2023-04-25T08:21:25;6.33;;;3.30;;
73951;SDS011;62304;47.662;18.324;2023-04-25T08:24:30;5.87;;;2.43;;
73951;SDS011;62304;47.662;18.324;2023-04-25T08:27:33;7.57;;;3.20;;
73951;SDS011;62304;47.662;18.324;2023-04-25T08:30:37;5.35;;;2.50;;
73951;SDS011;62304;47.662;18.324;2023-04-25T08:33:41;6.87;;;2.45;;
73951;SDS011;62304;47.662;18.324;2023-04-25T08:36:45;5.57;;;3.00;;
73951;SDS011;62304;47.662;18.324;2023-04-25T08:39:48;5.60;;;2.70;;
73951;SDS011;62304;47.662;18.324;2023-04-25T08:42:54;5.95;;;2.80;;
73951;SDS011;62304;47.662;18.324;2023-04-25T08:45:59;4.70;;;2.50;;
73951;SDS011;62304;47.662;18.324;2023-04-25T08:49:04;6.55;;;2.90;;
73951;SDS011;62304;47.662;18.324;2023-04-25T08:52:07;5.70;;;2.80;;
73951;SDS011;62304;47.662;18.324;2023-04-25T08:55:13;5.07;;;2.07;;
73951;SDS011;62304;47.662;18.324;2023-04-25T08:58:18;8.88;;;2.15;;
73951;SDS011;62304;47.662;18.324;2023-04-25T09:01:22;10.20;;;2.58;;
73951;SDS011;62304;47.662;18.324;2023-04-25T09:04:25;6.40;;;2.30;;
73951;SDS011;62304;47.662;18.324;2023-04-25T09:07:30;4.53;;;2.43;;
73951;SDS011;62304;47.662;18.324;2023-04-25T09:10:33;7.07;;;2.97;;
73951;SDS011;62304;47.662;18.324;2023-04-25T09:13:36;4.90;;;2.47;;
73951;SDS011;62304;47.662;18.324;2023-04-25T09:17:02;10.75;;;3.35;;
73951;SDS011;62304;47.662;18.324;2023-04-25T09:20:11;5.22;;;2.55;;
73951;SDS011;62304;47.662;18.324;2023-04-25T09:23:16;5.73;;;2.70;;
73951;SDS011;62304;47.662;18.324;2023-04-25T09:26:22;7.47;;;2.70;;
73951;SDS011;62304;47.662;18.324;2023-04-25T09:29:34;6.43;;;3.00;;
73951;SDS011;62304;47.662;18.324;2023-04-25T09:32:44;4.70;;;2.20;;
73951;SDS011;62304;47.662;18.324;2023-04-25T09:35:48;4.75;;;2.22;;
73951;SDS011;62304;47.662;18.324;2023-04-25T09:38:59;5.03;;;2.70;;
73951;SDS011;62304;47.662;18.324;2023-04-25T09:42:03;7.17;;;3.27;;
73951;SDS011;62304;47.662;18.324;2023-04-25T09:45:07;5.75;;;2.80;;
73951;SDS011;62304;47.662;18.324;2023-04-25T09:48:12;4.93;;;2.47;;
73951;SDS011;62304;47.662;18.324;2023-04-25T09:51:21;5.15;;;2.70;;
73951;SDS011;62304;47.662;18.324;2023-04-25T09:54:30;9.13;;;3.40;;
73951;SDS011;62304;47.662;18.324;2023-04-25T09:57:33;5.47;;;3.17;;
73951;SDS011;62304;47.662;18.324;2023-04-25T10:00:38;5.20;;;2.70;;
73951;SDS011;62304;47.662;18.324;2023-04-25T10:03:45;5.37;;;2.83;;
73951;SDS011;62304;47.662;18.324;2023-04-25T10:06:53;5.50;;;3.40;;
73951;SDS011;62304;47.662;18.324;2023-04-25T10:09:59;4.17;;;2.20;;
73951;SDS011;62304;47.662;18.324;2023-04-25T10:13:05;5.33;;;2.50;;
73951;SDS011;62304;47.662;18.324;2023-04-25T10:16:08;4.62;;;2.65;;
73951;SDS011;62304;47.662;18.324;2023-04-25T10:19:11;5.97;;;3.28;;
73951;SDS011;62304;47.662;18.324;2023-04-25T10:23:02;4.78;;;2.22;;
73951;SDS011;62304;47.662;18.324;2023-04-25T10:25:44;4.50;;;2.50;;
73951;SDS011;62304;47.662;18.324;2023-04-25T10:28:57;5.97;;;2.33;;
73951;SDS011;62304;47.662;18.324;2023-04-25T10:32:01;8.10;;;3.37;;
73951;SDS011;62304;47.662;18.324;2023-04-25T10:35:15;4.18;;;2.10;;
73951;SDS011;62304;47.662;18.324;2023-04-25T10:38:25;6.10;;;2.58;;
73951;SDS011;62304;47.662;18.324;2023-04-25T10:41:29;7.83;;;3.00;;
73951;SDS011;62304;47.662;18.324;2023-04-25T10:44:32;4.60;;;2.50;;
73951;SDS011;62304;47.662;18.324;2023-04-25T10:47:36;5.78;;;3.05;;
73951;SDS011;62304;47.662;18.324;2023-04-25T10:50:39;6.53;;;2.30;;
73951;SDS011;62304;47.662;18.324;2023-04-25T10:53:46;4.32;;;2.03;;
73951;SDS011;62304;47.662;18.324;2023-04-25T10:56:58;5.87;;;2.47;;
73951;SDS011;62304;47.662;18.324;2023-04-25T11:03:07;4.45;;;2.40;;
73951;SDS011;62304;47.662;18.324;2023-04-25T11:09:30;6.07;;;2.70;;
73951;SDS011;62304;47.662;18.324;2023-04-25T11:12:33;4.80;;;2.60;;
73951;SDS011;62304;47.662;18.324;2023-04-25T11:15:35;4.13;;;2.10;;
73951;SDS011;62304;47.662;18.324;2023-04-25T11:18:43;4.70;;;3.05;;
73951;SDS011;62304;47.662;18.324;2023-04-25T11:21:46;5.62;;;2.50;;
73951;SDS011;62304;47.662;18.324;2023-04-25T11:24:49;5.22;;;2.40;;
73951;SDS011;62304;47.662;18.324;2023-04-25T11:27:53;5.47;;;2.50;;
73951;SDS011;62304;47.662;18.324;2023-04-25T11:30:58;4.00;;;2.40;;
73951;SDS011;62304;47.662;18.324;2023-04-25T11:34:01;6.03;;;2.42;;
73951;SDS011;62304;47.662;18.324;2023-04-25T11:37:05;7.00;;;3.15;;
73951;SDS011;62304;47.662;18.324;2023-04-25T11:40:09;4.93;;;2.70;;
73951;SDS011;62304;47.662;18.324;2023-04-25T11:43:12;4.90;;;2.67;;
73951;SDS011;62304;47.662;18.324;2023-04-25T11:46:15;4.63;;;2.07;;
73951;SDS011;62304;47.662;18.324;2023-04-25T11:49:18;5.80;;;2.55;;
73951;SDS011;62304;47.662;18.324;2023-04-25T11:52:21;4.80;;;2.50;;
73951;SDS011;62304;47.662;18.324;2023-04-25T11:55:24;3.80;;;2.20;;
73951;SDS011;62304;47.662;18.324;2023-04-25T11:58:27;4.00;;;2.20;;
73951;SDS011;62304;47.662;18.324;2023-04-25T12:01:37;5.47;;;2.73;;
73951;SDS011;62304;47.662;18.324;2023-04-25T12:04:41;6.65;;;2.30;;
73951;SDS011;62304;47.662;18.324;2023-04-25T12:07:44;5.28;;;2.80;;
73951;SDS011;62304;47.662;18.324;2023-04-25T12:10:47;4.37;;;2.12;;
73951;SDS011;62304;47.662;18.324;2023-04-25T12:13:54;6.17;;;2.50;;
73951;SDS011;62304;47.662;18.324;2023-04-25T12:16:57;5.10;;;2.80;;
73951;SDS011;62304;47.662;18.324;2023-04-25T12:20:05;4.70;;;2.58;;
73951;SDS011;62304;47.662;18.324;2023-04-25T12:23:13;4.93;;;2.60;;
73951;SDS011;62304;47.662;18.324;2023-04-25T12:26:16;6.03;;;3.45;;
73951;SDS011;62304;47.662;18.324;2023-04-25T12:29:23;5.37;;;3.20;;
73951;SDS011;62304;47.662;18.324;2023-04-25T12:32:33;4.20;;;2.07;;
73951;SDS011;62304;47.662;18.324;2023-04-25T12:35:35;5.12;;;3.15;;
73951;SDS011;62304;47.662;18.324;2023-04-25T12:38:39;5.37;;;2.67;;
73951;SDS011;62304;47.662;18.324;2023-04-25T12:41:43;6.10;;;2.95;;
73951;SDS011;62304;47.662;18.324;2023-04-25T12:44:53;6.63;;;3.13;;
73951;SDS011;62304;47.662;18.324;2023-04-25T12:47:56;9.27;;;3.10;;
73951;SDS011;62304;47.662;18.324;2023-04-25T12:50:59;4.80;;;2.92;;
73951;SDS011;62304;47.662;18.324;2023-04-25T12:54:02;5.82;;;2.80;;
73951;SDS011;62304;47.662;18.324;2023-04-25T12:57:06;6.72;;;2.87;;
73951;SDS011;62304;47.662;18.324;2023-04-25T13:00:09;4.83;;;2.97;;
73951;SDS011;62304;47.662;18.324;2023-04-25T13:03:12;6.93;;;3.27;;
73951;SDS011;62304;47.662;18.324;2023-04-25T13:06:16;5.72;;;2.83;;
73951;SDS011;62304;47.662;18.324;2023-04-25T13:09:20;7.18;;;3.50;;
73951;SDS011;62304;47.662;18.324;2023-04-25T13:12:23;5.35;;;3.03;;
73951;SDS011;62304;47.662;18.324;2023-04-25T13:15:26;6.07;;;3.03;;
73951;SDS011;62304;47.662;18.324;2023-04-25T13:18:30;4.70;;;2.63;;
73951;SDS011;62304;47.662;18.324;2023-04-25T13:21:33;5.55;;;2.80;;
73951;SDS011;62304;47.662;18.324;2023-04-25T13:24:36;5.12;;;2.40;;
73951;SDS011;62304;47.662;18.324;2023-04-25T13:27:38;5.57;;;2.60;;
73951;SDS011;62304;47.662;18.324;2023-04-25T13:30:43;7.80;;;3.47;;
73951;SDS011;62304;47.662;18.324;2023-04-25T13:33:46;5.23;;;2.30;;
73951;SDS011;62304;47.662;18.324;2023-04-25T13:36:49;8.55;;;4.32;;
73951;SDS011;62304;47.662;18.324;2023-04-25T13:39:52;6.93;;;4.03;;
73951;SDS011;62304;47.662;18.324;2023-04-25T13:42:56;4.45;;;1.98;;
73951;SDS011;62304;47.662;18.324;2023-04-25T13:45:59;5.17;;;2.63;;
73951;SDS011;62304;47.662;18.324;2023-04-25T13:49:02;5.27;;;2.37;;
73951;SDS011;62304;47.662;18.324;2023-04-25T13:52:14;7.65;;;3.85;;
73951;SDS011;62304;47.662;18.324;2023-04-25T13:55:17;6.40;;;3.08;;
73951;SDS011;62304;47.662;18.324;2023-04-25T13:58:20;6.40;;;3.60;;
73951;SDS011;62304;47.662;18.324;2023-04-25T14:01:23;6.30;;;3.10;;
73951;SDS011;62304;47.662;18.324;2023-04-25T14:04:27;4.17;;;2.40;;
73951;SDS011;62304;47.662;18.324;2023-04-25T14:07:30;7.93;;;3.42;;
73951;SDS011;62304;47.662;18.324;2023-04-25T14:10:33;5.97;;;3.12;;
73951;SDS011;62304;47.662;18.324;2023-04-25T14:13:36;5.18;;;3.10;;
73951;SDS011;62304;47.662;18.324;2023-04-25T14:16:41;7.23;;;4.23;;
73951;SDS011;62304;47.662;18.324;2023-04-25T14:19:43;5.70;;;3.10;;
73951;SDS011;62304;47.662;18.324;2023-04-25T14:22:48;7.75;;;3.15;;
73951;SDS011;62304;47.662;18.324;2023-04-25T14:25:51;8.68;;;3.67;;
73951;SDS011;62304;47.662;18.324;2023-04-25T14:28:53;7.75;;;4.30;;
73951;SDS011;62304;47.662;18.324;2023-04-25T14:31:56;4.93;;;2.27;;
73951;SDS011;62304;47.662;18.324;2023-04-25T14:35:01;5.63;;;2.73;;
73951;SDS011;62304;47.662;18.324;2023-04-25T14:38:03;8.73;;;3.72;;
73951;SDS011;62304;47.662;18.324;2023-04-25T14:41:08;14.80;;;7.50;;
73951;SDS011;62304;47.662;18.324;2023-04-25T14:44:11;10.75;;;5.15;;
73951;SDS011;62304;47.662;18.324;2023-04-25T14:47:14;6.13;;;3.30;;
73951;SDS011;62304;47.662;18.324;2023-04-25T14:50:18;7.07;;;2.80;;
73951;SDS011;62304;47.662;18.324;2023-04-25T14:53:20;10.73;;;4.90;;
73951;SDS011;62304;47.662;18.324;2023-04-25T14:56:23;15.07;;;6.45;;
73951;SDS011;62304;47.662;18.324;2023-04-25T14:59:29;10.15;;;4.82;;
73951;SDS011;62304;47.662;18.324;2023-04-25T15:02:32;8.27;;;3.90;;
73951;SDS011;62304;47.662;18.324;2023-04-25T15:05:37;7.10;;;3.73;;
73951;SDS011;62304;47.662;18.324;2023-04-25T15:08:40;9.43;;;3.62;;
73951;SDS011;62304;47.662;18.324;2023-04-25T15:11:43;9.35;;;4.68;;
73951;SDS011;62304;47.662;18.324;2023-04-25T15:14:46;6.90;;;3.42;;
73951;SDS011;62304;47.662;18.324;2023-04-25T15:17:49;9.13;;;4.23;;
73951;SDS011;62304;47.662;18.324;2023-04-25T15:20:52;5.60;;;3.03;;
73951;SDS011;62304;47.662;18.324;2023-04-25T15:23:56;8.02;;;3.47;;
73951;SDS011;62304;47.662;18.324;2023-04-25T15:26:59;6.05;;;2.75;;
73951;SDS011;62304;47.662;18.324;2023-04-25T15:30:02;6.07;;;2.95;;
73951;SDS011;62304;47.662;18.324;2023-04-25T15:33:04;7.10;;;2.70;;
73951;SDS011;62304;47.662;18.324;2023-04-25T15:36:08;6.30;;;2.13;;
73951;SDS011;62304;47.662;18.324;2023-04-25T15:39:12;4.43;;;2.40;;
73951;SDS011;62304;47.662;18.324;2023-04-25T15:42:15;5.53;;;2.40;;
73951;SDS011;62304;47.662;18.324;2023-04-25T15:45:19;5.93;;;2.65;;
73951;SDS011;62304;47.662;18.324;2023-04-25T15:48:23;6.23;;;2.70;;
73951;SDS011;62304;47.662;18.324;2023-04-25T15:51:26;6.37;;;2.70;;
73951;SDS011;62304;47.662;18.324;2023-04-25T15:54:29;7.07;;;3.30;;
73951;SDS011;62304;47.662;18.324;2023-04-25T15:57:33;9.73;;;3.92;;
73951;SDS011;62304;47.662;18.324;2023-04-25T16:00:38;9.30;;;4.37;;
73951;SDS011;62304;47.662;18.324;2023-04-25T16:03:42;8.10;;;4.00;;
73951;SDS011;62304;47.662;18.324;2023-04-25T16:06:44;8.87;;;4.17;;
73951;SDS011;62304;47.662;18.324;2023-04-25T16:09:47;6.07;;;3.17;;
73951;SDS011;62304;47.662;18.324;2023-04-25T16:12:50;8.98;;;3.30;;
73951;SDS011;62304;47.662;18.324;2023-04-25T16:15:54;6.45;;;3.10;;
73951;SDS011;62304;47.662;18.324;2023-04-25T16:18:57;8.60;;;3.10;;
73951;SDS011;62304;47.662;18.324;2023-04-25T16:22:00;7.57;;;3.10;;
73951;SDS011;62304;47.662;18.324;2023-04-25T16:25:03;5.45;;;2.75;;
73951;SDS011;62304;47.662;18.324;2023-04-25T16:28:07;6.43;;;2.72;;
73951;SDS011;62304;47.662;18.324;2023-04-25T16:31:09;5.35;;;2.33;;
73951;SDS011;62304;47.662;18.324;2023-04-25T16:34:13;4.63;;;2.13;;
73951;SDS011;62304;47.662;18.324;2023-04-25T16:37:16;7.10;;;2.90;;
73951;SDS011;62304;47.662;18.324;2023-04-25T16:40:19;4.18;;;1.92;;
73951;SDS011;62304;47.662;18.324;2023-04-25T16:43:22;5.10;;;2.70;;
73951;SDS011;62304;47.662;18.324;2023-04-25T16:46:25;4.50;;;1.85;;
73951;SDS011;62304;47.662;18.324;2023-04-25T16:49:28;4.73;;;1.80;;
73951;SDS011;62304;47.662;18.324;2023-04-25T16:52:31;5.10;;;1.73;;
73951;SDS011;62304;47.662;18.324;2023-04-25T16:55:34;3.33;;;1.12;;
73951;SDS011;62304;47.662;18.324;2023-04-25T16:58:37;11.32;;;4.65;;
73951;SDS011;62304;47.662;18.324;2023-04-25T17:01:40;8.13;;;3.37;;
73951;SDS011;62304;47.662;18.324;2023-04-25T17:04:43;7.70;;;3.03;;
73951;SDS011;62304;47.662;18.324;2023-04-25T17:07:47;9.97;;;4.33;;
73951;SDS011;62304;47.662;18.324;2023-04-25T17:10:50;5.30;;;2.45;;
73951;SDS011;62304;47.662;18.324;2023-04-25T17:13:56;7.57;;;3.00;;
73951;SDS011;62304;47.662;18.324;2023-04-25T17:16:59;5.18;;;2.30;;
73951;SDS011;62304;47.662;18.324;2023-04-25T17:20:03;8.13;;;2.30;;
73951;SDS011;62304;47.662;18.324;2023-04-25T17:23:10;6.50;;;2.60;;
73951;SDS011;62304;47.662;18.324;2023-04-25T17:26:16;5.82;;;2.95;;
73951;SDS011;62304;47.662;18.324;2023-04-25T17:29:19;4.87;;;2.17;;
73951;SDS011;62304;47.662;18.324;2023-04-25T17:32:25;5.03;;;2.17;;
73951;SDS011;62304;47.662;18.324;2023-04-25T17:35:30;6.03;;;2.40;;
73951;SDS011;62304;47.662;18.324;2023-04-25T17:38:35;5.70;;;2.60;;
73951;SDS011;62304;47.662;18.324;2023-04-25T17:41:40;5.28;;;2.37;;
73951;SDS011;62304;47.662;18.324;2023-04-25T17:44:43;6.10;;;2.58;;
73951;SDS011;62304;47.662;18.324;2023-04-25T17:47:46;5.20;;;2.17;;
73951;SDS011;62304;47.662;18.324;2023-04-25T17:50:51;4.80;;;2.10;;
73951;SDS011;62304;47.662;18.324;2023-04-25T17:53:55;5.10;;;2.20;;
73951;SDS011;62304;47.662;18.324;2023-04-25T17:56:58;5.07;;;2.25;;
73951;SDS011;62304;47.662;18.324;2023-04-25T18:00:02;8.10;;;2.30;;
73951;SDS011;62304;47.662;18.324;2023-04-25T18:03:12;6.32;;;2.50;;
73951;SDS011;62304;47.662;18.324;2023-04-25T18:06:16;5.73;;;2.67;;
73951;SDS011;62304;47.662;18.324;2023-04-25T18:09:35;4.90;;;2.57;;
73951;SDS011;62304;47.662;18.324;2023-04-25T18:12:39;6.12;;;2.25;;
73951;SDS011;62304;47.662;18.324;2023-04-25T18:15:43;4.80;;;2.53;;
73951;SDS011;62304;47.662;18.324;2023-04-25T18:18:47;5.60;;;2.35;;
73951;SDS011;62304;47.662;18.324;2023-04-25T18:21:55;5.00;;;2.10;;